sensor_id;sensor_type;location;lat;lon;timestamp;P1;durP1;ratioP1;P2;durP2;ratioP2
74168;SDS011;62523;53.336;83.690;2022-10-16T00:05:47;105.80;;;47.55;;
74168;SDS011;62523;53.336;83.690;2022-10-16T00:15:49;103.20;;;48.60;;
74168;SDS011;62523;53.336;83.690;2022-10-16T00:20:50;112.00;;;50.65;;
74168;SDS011;62523;53.336;83.690;2022-10-16T00:26:15;115.32;;;50.05;;
74168;SDS011;62523;53.336;83.690;2022-10-16T00:31:18;92.82;;;45.10;;
74168;SDS011;62523;53.336;83.690;2022-10-16T00:36:22;105.57;;;48.65;;
74168;SDS011;62523;53.336;83.690;2022-10-16T00:41:25;94.65;;;43.53;;
74168;SDS011;62523;53.336;83.690;2022-10-16T00:46:44;106.10;;;49.08;;
74168;SDS011;62523;53.336;83.690;2022-10-16T00:51:52;88.65;;;47.72;;
74168;SDS011;62523;53.336;83.690;2022-10-16T00:56:54;106.78;;;46.83;;
74168;SDS011;62523;53.336;83.690;2022-10-16T01:01:58;118.65;;;48.78;;
74168;SDS011;62523;53.336;83.690;2022-10-16T01:17:50;111.60;;;50.88;;
74168;SDS011;62523;53.336;83.690;2022-10-16T01:28:11;96.65;;;47.15;;
74168;SDS011;62523;53.336;83.690;2022-10-16T01:33:30;101.00;;;48.67;;
74168;SDS011;62523;53.336;83.690;2022-10-16T01:38:40;107.00;;;48.17;;
74168;SDS011;62523;53.336;83.690;2022-10-16T01:43:47;86.45;;;43.13;;
74168;SDS011;62523;53.336;83.690;2022-10-16T01:48:54;92.13;;;43.47;;
74168;SDS011;62523;53.336;83.690;2022-10-16T01:53:56;77.88;;;38.78;;
74168;SDS011;62523;53.336;83.690;2022-10-16T01:59:04;85.82;;;37.35;;
74168;SDS011;62523;53.336;83.690;2022-10-16T02:04:53;71.35;;;36.58;;
74168;SDS011;62523;53.336;83.690;2022-10-16T02:09:37;66.90;;;31.75;;
74168;SDS011;62523;53.336;83.690;2022-10-16T02:14:39;67.40;;;38.80;;
74168;SDS011;62523;53.336;83.690;2022-10-16T02:19:41;61.63;;;32.22;;
74168;SDS011;62523;53.336;83.690;2022-10-16T02:29:49;94.35;;;50.97;;
74168;SDS011;62523;53.336;83.690;2022-10-16T02:34:59;73.80;;;34.70;;
74168;SDS011;62523;53.336;83.690;2022-10-16T02:40:02;42.85;;;22.40;;
74168;SDS011;62523;53.336;83.690;2022-10-16T02:45:06;64.93;;;32.40;;
74168;SDS011;62523;53.336;83.690;2022-10-16T02:50:09;69.43;;;36.63;;
74168;SDS011;62523;53.336;83.690;2022-10-16T02:55:10;94.75;;;38.58;;
74168;SDS011;62523;53.336;83.690;2022-10-16T03:00:12;97.47;;;52.25;;
74168;SDS011;62523;53.336;83.690;2022-10-16T03:05:16;51.80;;;28.02;;
74168;SDS011;62523;53.336;83.690;2022-10-16T03:10:18;104.47;;;49.75;;
74168;SDS011;62523;53.336;83.690;2022-10-16T03:15:19;146.20;;;73.50;;
74168;SDS011;62523;53.336;83.690;2022-10-16T03:25:21;48.53;;;28.77;;
74168;SDS011;62523;53.336;83.690;2022-10-16T03:35:24;35.53;;;20.88;;
74168;SDS011;62523;53.336;83.690;2022-10-16T03:40:25;47.38;;;20.38;;
74168;SDS011;62523;53.336;83.690;2022-10-16T03:45:27;55.97;;;24.08;;
74168;SDS011;62523;53.336;83.690;2022-10-16T03:55:30;38.58;;;18.88;;
74168;SDS011;62523;53.336;83.690;2022-10-16T04:05:32;30.95;;;15.35;;
74168;SDS011;62523;53.336;83.690;2022-10-16T04:15:34;24.58;;;12.32;;
74168;SDS011;62523;53.336;83.690;2022-10-16T04:25:36;20.15;;;9.13;;
74168;SDS011;62523;53.336;83.690;2022-10-16T04:30:38;21.52;;;11.30;;
74168;SDS011;62523;53.336;83.690;2022-10-16T04:35:40;16.30;;;9.90;;
74168;SDS011;62523;53.336;83.690;2022-10-16T04:40:42;30.08;;;14.32;;
74168;SDS011;62523;53.336;83.690;2022-10-16T04:45:43;25.15;;;14.60;;
74168;SDS011;62523;53.336;83.690;2022-10-16T04:50:44;27.25;;;18.13;;
74168;SDS011;62523;53.336;83.690;2022-10-16T04:55:46;32.15;;;19.83;;
74168;SDS011;62523;53.336;83.690;2022-10-16T05:00:47;35.08;;;20.10;;
74168;SDS011;62523;53.336;83.690;2022-10-16T05:05:49;52.65;;;23.85;;
74168;SDS011;62523;53.336;83.690;2022-10-16T05:10:50;58.13;;;27.95;;
74168;SDS011;62523;53.336;83.690;2022-10-16T05:15:51;56.45;;;26.95;;
74168;SDS011;62523;53.336;83.690;2022-10-16T05:20:53;58.88;;;24.88;;
74168;SDS011;62523;53.336;83.690;2022-10-16T05:25:57;59.05;;;32.88;;
74168;SDS011;62523;53.336;83.690;2022-10-16T05:31:03;47.65;;;22.30;;
74168;SDS011;62523;53.336;83.690;2022-10-16T05:36:07;42.35;;;22.02;;
74168;SDS011;62523;53.336;83.690;2022-10-16T05:41:10;45.03;;;21.58;;
74168;SDS011;62523;53.336;83.690;2022-10-16T05:46:11;47.70;;;20.00;;
74168;SDS011;62523;53.336;83.690;2022-10-16T05:51:13;31.52;;;16.95;;
74168;SDS011;62523;53.336;83.690;2022-10-16T05:56:15;27.25;;;17.58;;
74168;SDS011;62523;53.336;83.690;2022-10-16T06:01:18;36.85;;;17.50;;
74168;SDS011;62523;53.336;83.690;2022-10-16T06:06:22;27.30;;;16.95;;
74168;SDS011;62523;53.336;83.690;2022-10-16T06:11:27;29.02;;;14.30;;
74168;SDS011;62523;53.336;83.690;2022-10-16T06:16:31;26.52;;;12.45;;
74168;SDS011;62523;53.336;83.690;2022-10-16T06:21:33;49.97;;;13.48;;
74168;SDS011;62523;53.336;83.690;2022-10-16T06:26:34;16.95;;;10.60;;
74168;SDS011;62523;53.336;83.690;2022-10-16T06:31:35;28.20;;;13.30;;
74168;SDS011;62523;53.336;83.690;2022-10-16T06:36:37;23.10;;;11.75;;
74168;SDS011;62523;53.336;83.690;2022-10-16T06:41:39;22.27;;;10.60;;
74168;SDS011;62523;53.336;83.690;2022-10-16T06:46:40;14.45;;;9.05;;
74168;SDS011;62523;53.336;83.690;2022-10-16T06:51:41;13.02;;;8.73;;
74168;SDS011;62523;53.336;83.690;2022-10-16T06:56:43;18.02;;;8.60;;
74168;SDS011;62523;53.336;83.690;2022-10-16T07:01:45;14.02;;;9.40;;
74168;SDS011;62523;53.336;83.690;2022-10-16T07:06:46;16.38;;;9.77;;
74168;SDS011;62523;53.336;83.690;2022-10-16T07:11:47;17.92;;;9.82;;
74168;SDS011;62523;53.336;83.690;2022-10-16T07:16:49;15.27;;;8.52;;
74168;SDS011;62523;53.336;83.690;2022-10-16T07:21:50;14.20;;;7.55;;
74168;SDS011;62523;53.336;83.690;2022-10-16T07:26:51;13.45;;;9.32;;
74168;SDS011;62523;53.336;83.690;2022-10-16T07:31:53;12.23;;;6.78;;
74168;SDS011;62523;53.336;83.690;2022-10-16T07:36:54;14.15;;;7.93;;
74168;SDS011;62523;53.336;83.690;2022-10-16T07:41:56;11.70;;;8.07;;
74168;SDS011;62523;53.336;83.690;2022-10-16T07:46:57;17.40;;;8.50;;
74168;SDS011;62523;53.336;83.690;2022-10-16T07:51:58;22.52;;;10.43;;
74168;SDS011;62523;53.336;83.690;2022-10-16T07:57:00;21.75;;;10.18;;
74168;SDS011;62523;53.336;83.690;2022-10-16T08:02:01;14.85;;;8.05;;
74168;SDS011;62523;53.336;83.690;2022-10-16T08:07:02;28.17;;;8.60;;
74168;SDS011;62523;53.336;83.690;2022-10-16T08:12:04;29.33;;;8.85;;
74168;SDS011;62523;53.336;83.690;2022-10-16T08:17:05;17.17;;;8.80;;
74168;SDS011;62523;53.336;83.690;2022-10-16T08:22:07;20.48;;;9.05;;
74168;SDS011;62523;53.336;83.690;2022-10-16T08:27:08;19.70;;;11.25;;
74168;SDS011;62523;53.336;83.690;2022-10-16T08:32:09;24.38;;;10.98;;
74168;SDS011;62523;53.336;83.690;2022-10-16T08:37:10;16.35;;;10.82;;
74168;SDS011;62523;53.336;83.690;2022-10-16T08:42:23;21.55;;;9.73;;
74168;SDS011;62523;53.336;83.690;2022-10-16T08:53:07;16.83;;;10.85;;
74168;SDS011;62523;53.336;83.690;2022-10-16T08:58:16;15.98;;;9.27;;
74168;SDS011;62523;53.336;83.690;2022-10-16T09:08:42;18.33;;;9.73;;
74168;SDS011;62523;53.336;83.690;2022-10-16T09:14:07;18.58;;;8.73;;
74168;SDS011;62523;53.336;83.690;2022-10-16T09:19:17;22.52;;;10.30;;
74168;SDS011;62523;53.336;83.690;2022-10-16T09:24:29;16.52;;;8.38;;
74168;SDS011;62523;53.336;83.690;2022-10-16T09:29:31;21.73;;;8.07;;
74168;SDS011;62523;53.336;83.690;2022-10-16T09:34:33;20.52;;;10.02;;
74168;SDS011;62523;53.336;83.690;2022-10-16T09:39:47;16.70;;;8.27;;
74168;SDS011;62523;53.336;83.690;2022-10-16T09:44:52;35.97;;;8.90;;
74168;SDS011;62523;53.336;83.690;2022-10-16T09:49:55;17.27;;;6.05;;
74168;SDS011;62523;53.336;83.690;2022-10-16T09:55:14;19.55;;;7.80;;
74168;SDS011;62523;53.336;83.690;2022-10-16T10:00:18;26.92;;;6.93;;
74168;SDS011;62523;53.336;83.690;2022-10-16T10:05:27;22.45;;;7.30;;
74168;SDS011;62523;53.336;83.690;2022-10-16T10:10:30;15.98;;;5.70;;
74168;SDS011;62523;53.336;83.690;2022-10-16T10:15:35;9.65;;;5.88;;
74168;SDS011;62523;53.336;83.690;2022-10-16T10:20:42;22.35;;;7.20;;
74168;SDS011;62523;53.336;83.690;2022-10-16T10:25:48;27.05;;;8.82;;
74168;SDS011;62523;53.336;83.690;2022-10-16T10:30:56;20.20;;;8.20;;
74168;SDS011;62523;53.336;83.690;2022-10-16T10:46:30;19.63;;;9.35;;
74168;SDS011;62523;53.336;83.690;2022-10-16T10:51:45;18.98;;;11.25;;
74168;SDS011;62523;53.336;83.690;2022-10-16T10:57:06;22.40;;;9.32;;
74168;SDS011;62523;53.336;83.690;2022-10-16T11:07:48;45.40;;;21.45;;
74168;SDS011;62523;53.336;83.690;2022-10-16T11:12:58;33.33;;;19.40;;
74168;SDS011;62523;53.336;83.690;2022-10-16T11:18:32;42.40;;;18.73;;
74168;SDS011;62523;53.336;83.690;2022-10-16T11:28:52;36.15;;;17.92;;
74168;SDS011;62523;53.336;83.690;2022-10-16T11:34:06;31.42;;;15.23;;
74168;SDS011;62523;53.336;83.690;2022-10-16T11:39:30;33.58;;;17.48;;
74168;SDS011;62523;53.336;83.690;2022-10-16T11:49:46;60.92;;;26.73;;
74168;SDS011;62523;53.336;83.690;2022-10-16T11:55:06;66.57;;;30.92;;
74168;SDS011;62523;53.336;83.690;2022-10-16T12:00:19;61.05;;;32.03;;
74168;SDS011;62523;53.336;83.690;2022-10-16T12:10:35;57.10;;;23.42;;
74168;SDS011;62523;53.336;83.690;2022-10-16T12:15:38;37.22;;;17.42;;
74168;SDS011;62523;53.336;83.690;2022-10-16T12:25:53;35.35;;;17.77;;
74168;SDS011;62523;53.336;83.690;2022-10-16T12:30:59;63.58;;;20.50;;
74168;SDS011;62523;53.336;83.690;2022-10-16T12:36:26;49.20;;;24.25;;
74168;SDS011;62523;53.336;83.690;2022-10-16T12:41:31;85.22;;;35.22;;
74168;SDS011;62523;53.336;83.690;2022-10-16T12:46:39;71.85;;;36.72;;
74168;SDS011;62523;53.336;83.690;2022-10-16T12:51:41;65.03;;;32.63;;
74168;SDS011;62523;53.336;83.690;2022-10-16T13:02:39;105.40;;;51.67;;
74168;SDS011;62523;53.336;83.690;2022-10-16T13:13:20;97.57;;;45.17;;
74168;SDS011;62523;53.336;83.690;2022-10-16T13:29:19;80.97;;;43.95;;
74168;SDS011;62523;53.336;83.690;2022-10-16T13:34:21;80.63;;;46.17;;
74168;SDS011;62523;53.336;83.690;2022-10-16T13:44:28;97.70;;;56.20;;
74168;SDS011;62523;53.336;83.690;2022-10-16T13:49:36;103.75;;;55.17;;
74168;SDS011;62523;53.336;83.690;2022-10-16T13:54:37;101.07;;;57.45;;
74168;SDS011;62523;53.336;83.690;2022-10-16T13:59:39;90.28;;;57.85;;
74168;SDS011;62523;53.336;83.690;2022-10-16T14:04:40;112.50;;;52.53;;
74168;SDS011;62523;53.336;83.690;2022-10-16T14:09:42;90.50;;;47.38;;
74168;SDS011;62523;53.336;83.690;2022-10-16T14:14:52;87.55;;;44.42;;
74168;SDS011;62523;53.336;83.690;2022-10-16T14:19:55;75.05;;;39.83;;
74168;SDS011;62523;53.336;83.690;2022-10-16T14:25:00;63.35;;;38.30;;
74168;SDS011;62523;53.336;83.690;2022-10-16T14:30:18;52.22;;;31.35;;
74168;SDS011;62523;53.336;83.690;2022-10-16T14:35:32;57.92;;;32.05;;
74168;SDS011;62523;53.336;83.690;2022-10-16T14:40:38;52.30;;;28.42;;
74168;SDS011;62523;53.336;83.690;2022-10-16T14:45:50;44.90;;;23.25;;
74168;SDS011;62523;53.336;83.690;2022-10-16T14:50:54;47.10;;;20.73;;
74168;SDS011;62523;53.336;83.690;2022-10-16T14:55:55;28.77;;;14.63;;
74168;SDS011;62523;53.336;83.690;2022-10-16T15:00:56;30.83;;;14.65;;
74168;SDS011;62523;53.336;83.690;2022-10-16T15:05:59;39.55;;;17.08;;
74168;SDS011;62523;53.336;83.690;2022-10-16T15:11:00;32.22;;;17.20;;
74168;SDS011;62523;53.336;83.690;2022-10-16T15:16:02;40.83;;;23.25;;
74168;SDS011;62523;53.336;83.690;2022-10-16T15:21:03;45.53;;;27.35;;
74168;SDS011;62523;53.336;83.690;2022-10-16T15:26:04;51.75;;;32.65;;
74168;SDS011;62523;53.336;83.690;2022-10-16T15:31:06;74.13;;;36.58;;
74168;SDS011;62523;53.336;83.690;2022-10-16T15:36:07;61.47;;;33.95;;
74168;SDS011;62523;53.336;83.690;2022-10-16T15:41:09;72.45;;;30.83;;
74168;SDS011;62523;53.336;83.690;2022-10-16T15:46:11;58.90;;;30.67;;
74168;SDS011;62523;53.336;83.690;2022-10-16T15:51:15;49.88;;;26.35;;
74168;SDS011;62523;53.336;83.690;2022-10-16T15:56:17;45.58;;;25.67;;
74168;SDS011;62523;53.336;83.690;2022-10-16T16:01:19;43.25;;;27.02;;
74168;SDS011;62523;53.336;83.690;2022-10-16T16:06:20;38.20;;;21.33;;
74168;SDS011;62523;53.336;83.690;2022-10-16T16:11:23;40.28;;;19.98;;
74168;SDS011;62523;53.336;83.690;2022-10-16T16:16:24;52.45;;;21.25;;
74168;SDS011;62523;53.336;83.690;2022-10-16T16:21:25;64.72;;;33.47;;
74168;SDS011;62523;53.336;83.690;2022-10-16T16:26:28;34.85;;;19.35;;
74168;SDS011;62523;53.336;83.690;2022-10-16T16:31:36;34.78;;;16.63;;
74168;SDS011;62523;53.336;83.690;2022-10-16T16:36:37;31.88;;;14.63;;
74168;SDS011;62523;53.336;83.690;2022-10-16T16:41:40;31.63;;;12.48;;
74168;SDS011;62523;53.336;83.690;2022-10-16T16:46:42;23.90;;;11.82;;
74168;SDS011;62523;53.336;83.690;2022-10-16T16:51:44;61.08;;;30.67;;
74168;SDS011;62523;53.336;83.690;2022-10-16T16:56:45;39.28;;;10.75;;
74168;SDS011;62523;53.336;83.690;2022-10-16T17:01:47;15.65;;;6.93;;
74168;SDS011;62523;53.336;83.690;2022-10-16T17:06:48;19.75;;;9.05;;
74168;SDS011;62523;53.336;83.690;2022-10-16T17:11:50;23.70;;;6.63;;
74168;SDS011;62523;53.336;83.690;2022-10-16T17:16:52;6.95;;;5.10;;
74168;SDS011;62523;53.336;83.690;2022-10-16T17:21:54;11.15;;;5.97;;
74168;SDS011;62523;53.336;83.690;2022-10-16T17:26:55;8.18;;;5.18;;
74168;SDS011;62523;53.336;83.690;2022-10-16T17:31:56;13.77;;;6.43;;
74168;SDS011;62523;53.336;83.690;2022-10-16T17:36:59;8.25;;;5.07;;
74168;SDS011;62523;53.336;83.690;2022-10-16T17:42:01;12.82;;;5.13;;
74168;SDS011;62523;53.336;83.690;2022-10-16T17:47:02;9.80;;;5.93;;
74168;SDS011;62523;53.336;83.690;2022-10-16T17:52:03;22.45;;;6.70;;
74168;SDS011;62523;53.336;83.690;2022-10-16T17:57:04;14.68;;;6.53;;
74168;SDS011;62523;53.336;83.690;2022-10-16T18:02:05;11.77;;;6.32;;
74168;SDS011;62523;53.336;83.690;2022-10-16T18:07:08;13.07;;;6.32;;
74168;SDS011;62523;53.336;83.690;2022-10-16T18:12:10;12.55;;;5.00;;
74168;SDS011;62523;53.336;83.690;2022-10-16T18:17:11;13.93;;;4.72;;
74168;SDS011;62523;53.336;83.690;2022-10-16T18:22:12;13.00;;;3.75;;
74168;SDS011;62523;53.336;83.690;2022-10-16T18:27:13;12.88;;;3.80;;
74168;SDS011;62523;53.336;83.690;2022-10-16T18:32:14;7.13;;;3.55;;
74168;SDS011;62523;53.336;83.690;2022-10-16T18:37:15;7.18;;;3.42;;
74168;SDS011;62523;53.336;83.690;2022-10-16T18:42:18;6.47;;;2.80;;
74168;SDS011;62523;53.336;83.690;2022-10-16T18:47:19;3.60;;;2.53;;
74168;SDS011;62523;53.336;83.690;2022-10-16T18:52:20;7.25;;;2.55;;
74168;SDS011;62523;53.336;83.690;2022-10-16T18:57:23;9.40;;;3.45;;
74168;SDS011;62523;53.336;83.690;2022-10-16T19:02:27;5.03;;;2.65;;
74168;SDS011;62523;53.336;83.690;2022-10-16T19:07:28;11.00;;;3.65;;
74168;SDS011;62523;53.336;83.690;2022-10-16T19:12:31;11.85;;;2.92;;
74168;SDS011;62523;53.336;83.690;2022-10-16T19:17:32;16.42;;;3.80;;
74168;SDS011;62523;53.336;83.690;2022-10-16T19:22:33;8.52;;;3.88;;
74168;SDS011;62523;53.336;83.690;2022-10-16T19:28:06;9.35;;;3.22;;
74168;SDS011;62523;53.336;83.690;2022-10-16T19:33:09;7.25;;;3.83;;
74168;SDS011;62523;53.336;83.690;2022-10-16T19:38:10;16.80;;;4.63;;
74168;SDS011;62523;53.336;83.690;2022-10-16T19:43:11;7.70;;;4.38;;
74168;SDS011;62523;53.336;83.690;2022-10-16T19:48:12;10.73;;;4.28;;
74168;SDS011;62523;53.336;83.690;2022-10-16T19:53:14;13.18;;;5.65;;
74168;SDS011;62523;53.336;83.690;2022-10-16T19:58:15;16.60;;;8.65;;
74168;SDS011;62523;53.336;83.690;2022-10-16T20:03:16;18.95;;;7.82;;
74168;SDS011;62523;53.336;83.690;2022-10-16T20:08:17;21.27;;;6.75;;
74168;SDS011;62523;53.336;83.690;2022-10-16T20:13:19;18.85;;;6.55;;
74168;SDS011;62523;53.336;83.690;2022-10-16T20:18:21;19.05;;;7.30;;
74168;SDS011;62523;53.336;83.690;2022-10-16T20:23:23;17.60;;;5.78;;
74168;SDS011;62523;53.336;83.690;2022-10-16T20:28:24;23.83;;;8.70;;
74168;SDS011;62523;53.336;83.690;2022-10-16T20:33:25;15.82;;;7.13;;
74168;SDS011;62523;53.336;83.690;2022-10-16T20:38:26;18.20;;;9.27;;
74168;SDS011;62523;53.336;83.690;2022-10-16T20:43:27;23.15;;;8.90;;
74168;SDS011;62523;53.336;83.690;2022-10-16T20:48:29;11.48;;;8.45;;
74168;SDS011;62523;53.336;83.690;2022-10-16T20:53:30;15.10;;;8.65;;
74168;SDS011;62523;53.336;83.690;2022-10-16T20:58:32;19.73;;;7.75;;
74168;SDS011;62523;53.336;83.690;2022-10-16T21:03:33;7.53;;;5.65;;
74168;SDS011;62523;53.336;83.690;2022-10-16T21:08:35;21.98;;;5.38;;
74168;SDS011;62523;53.336;83.690;2022-10-16T21:13:38;12.98;;;4.63;;
74168;SDS011;62523;53.336;83.690;2022-10-16T21:18:39;7.55;;;4.35;;
74168;SDS011;62523;53.336;83.690;2022-10-16T21:23:43;5.60;;;4.25;;
74168;SDS011;62523;53.336;83.690;2022-10-16T21:28:44;8.13;;;4.30;;
74168;SDS011;62523;53.336;83.690;2022-10-16T21:33:45;11.68;;;3.78;;
74168;SDS011;62523;53.336;83.690;2022-10-16T21:38:47;6.07;;;3.25;;
74168;SDS011;62523;53.336;83.690;2022-10-16T21:43:48;4.05;;;3.42;;
74168;SDS011;62523;53.336;83.690;2022-10-16T21:48:53;10.43;;;4.28;;
74168;SDS011;62523;53.336;83.690;2022-10-16T21:53:56;7.30;;;5.20;;
74168;SDS011;62523;53.336;83.690;2022-10-16T21:58:57;12.30;;;5.57;;
74168;SDS011;62523;53.336;83.690;2022-10-16T22:03:59;7.70;;;5.35;;
74168;SDS011;62523;53.336;83.690;2022-10-16T22:09:00;12.02;;;8.63;;
74168;SDS011;62523;53.336;83.690;2022-10-16T22:14:05;13.00;;;7.63;;
74168;SDS011;62523;53.336;83.690;2022-10-16T22:19:09;14.15;;;7.82;;
74168;SDS011;62523;53.336;83.690;2022-10-16T22:24:12;12.23;;;7.18;;
74168;SDS011;62523;53.336;83.690;2022-10-16T22:29:14;10.50;;;6.50;;
74168;SDS011;62523;53.336;83.690;2022-10-16T22:34:16;8.63;;;6.18;;
74168;SDS011;62523;53.336;83.690;2022-10-16T22:39:19;23.17;;;7.75;;
74168;SDS011;62523;53.336;83.690;2022-10-16T22:44:20;20.65;;;8.10;;
74168;SDS011;62523;53.336;83.690;2022-10-16T22:49:21;16.40;;;6.00;;
74168;SDS011;62523;53.336;83.690;2022-10-16T22:54:23;19.42;;;7.35;;
74168;SDS011;62523;53.336;83.690;2022-10-16T22:59:24;14.85;;;6.80;;
74168;SDS011;62523;53.336;83.690;2022-10-16T23:04:25;14.20;;;5.40;;
74168;SDS011;62523;53.336;83.690;2022-10-16T23:09:27;6.70;;;4.60;;
74168;SDS011;62523;53.336;83.690;2022-10-16T23:14:28;12.95;;;4.13;;
74168;SDS011;62523;53.336;83.690;2022-10-16T23:19:29;8.13;;;4.80;;
74168;SDS011;62523;53.336;83.690;2022-10-16T23:24:30;8.60;;;5.00;;
74168;SDS011;62523;53.336;83.690;2022-10-16T23:29:32;17.00;;;4.90;;
74168;SDS011;62523;53.336;83.690;2022-10-16T23:34:33;18.98;;;4.70;;
74168;SDS011;62523;53.336;83.690;2022-10-16T23:39:35;11.93;;;5.03;;
74168;SDS011;62523;53.336;83.690;2022-10-16T23:44:36;18.42;;;5.13;;
74168;SDS011;62523;53.336;83.690;2022-10-16T23:49:38;9.30;;;4.60;;
74168;SDS011;62523;53.336;83.690;2022-10-16T23:54:39;10.13;;;5.35;;
74168;SDS011;62523;53.336;83.690;2022-10-16T23:59:40;15.73;;;7.75;;
